createdAt,value
2019-03-31T00:01:25.922Z,66.62
2019-03-31T00:03:55.458Z,72.10
2019-03-31T00:06:25.413Z,72.12
2019-03-31T00:08:55.264Z,57.90
2019-03-31T00:11:24.708Z,74.22
2019-03-31T00:13:54.170Z,71.12
2019-03-31T00:16:24.221Z,73.05
2019-03-31T00:18:54.119Z,81.55
2019-03-31T00:21:23.845Z,72.80
2019-03-31T00:23:53.466Z,63.40
2019-03-31T00:26:23.021Z,68.75
2019-03-31T00:28:52.557Z,72.10
2019-03-31T00:31:22.768Z,70.70
2019-03-31T00:33:52.601Z,70.15
2019-03-31T00:36:22.111Z,72.70
2019-03-31T00:38:51.609Z,70.95
2019-03-31T00:41:21.309Z,74.92
2019-03-31T00:43:50.946Z,67.37
2019-03-31T00:46:20.704Z,75.50
2019-03-31T00:48:50.413Z,75.42
2019-03-31T00:51:21.228Z,78.42
2019-03-31T00:53:50.868Z,81.75
2019-03-31T00:56:20.330Z,68.40
2019-03-31T00:58:49.719Z,69.75
2019-03-31T01:01:20.810Z,85.85
2019-03-31T01:03:50.565Z,88.65
2019-03-31T01:06:21.268Z,86.67
2019-03-31T01:08:50.970Z,89.95
2019-03-31T01:11:24.864Z,95.90
2019-03-31T01:13:55.578Z,89.15
2019-03-31T01:16:26.885Z,89.80
2019-03-31T01:18:56.326Z,92.75
2019-03-31T01:21:26.033Z,91.87
2019-03-31T01:23:56.513Z,89.52
2019-03-31T01:26:26.091Z,85.15
2019-03-31T01:28:57.086Z,78.85
2019-03-31T01:31:28.328Z,86.82
2019-03-31T01:33:57.934Z,91.02
2019-03-31T01:36:27.659Z,87.05
2019-03-31T01:38:57.286Z,96.92
2019-03-31T01:41:27.004Z,92.95
2019-03-31T01:43:56.724Z,96.28
2019-03-31T01:46:28.052Z,99.32
2019-03-31T01:48:57.755Z,99.50
2019-03-31T01:51:28.900Z,100.38
2019-03-31T01:53:58.340Z,107.43
2019-03-31T01:56:27.798Z,105.37
2019-03-31T01:58:57.711Z,107.22
2019-03-31T02:01:27.702Z,114.67
2019-03-31T02:03:57.721Z,116.00
2019-03-31T02:06:27.648Z,108.35
2019-03-31T02:08:57.296Z,115.88
2019-03-31T02:11:26.986Z,110.15
2019-03-31T02:13:56.680Z,116.62
2019-03-31T02:16:26.395Z,115.20
2019-03-31T02:18:55.833Z,111.35
2019-03-31T02:21:25.301Z,119.75
2019-03-31T02:23:54.908Z,120.67
2019-03-31T02:26:24.553Z,118.53
2019-03-31T02:28:54.306Z,129.23
2019-03-31T02:31:24.461Z,122.90
2019-03-31T02:33:53.872Z,133.55
2019-03-31T02:36:23.497Z,126.67
2019-03-31T02:38:52.860Z,131.82
2019-03-31T02:41:22.615Z,130.80
2019-03-31T02:43:52.153Z,132.20
2019-03-31T02:46:22.066Z,127.55
2019-03-31T02:48:51.795Z,135.82
2019-03-31T02:51:21.443Z,127.90
2019-03-31T02:53:51.201Z,126.87
2019-03-31T02:56:22.556Z,125.15
2019-03-31T02:58:54.722Z,120.65
2019-03-31T03:01:26.099Z,118.45
2019-03-31T03:03:58.262Z,126.65
2019-03-31T03:06:30.924Z,122.35
2019-03-31T03:09:02.030Z,117.72
2019-03-31T03:11:32.614Z,128.87
2019-03-31T03:14:03.510Z,116.42
2019-03-31T03:16:33.143Z,122.55
2019-03-31T03:19:02.591Z,115.12
2019-03-31T03:21:32.316Z,107.12
2019-03-31T03:24:02.048Z,109.87
2019-03-31T03:26:31.931Z,108.30
2019-03-31T03:29:01.635Z,105.20
2019-03-31T03:31:31.139Z,107.17
2019-03-31T03:34:01.022Z,104.78
2019-03-31T03:36:31.176Z,105.27
2019-03-31T03:39:00.903Z,106.52
2019-03-31T03:41:30.620Z,110.35
2019-03-31T03:44:02.442Z,108.85
2019-03-31T03:46:31.761Z,107.07
2019-03-31T03:49:01.399Z,109.22
2019-03-31T03:51:30.959Z,109.95
2019-03-31T03:54:01.084Z,108.87
2019-03-31T03:56:30.529Z,115.28
2019-03-31T03:58:59.995Z,108.65
2019-03-31T04:01:31.335Z,111.47
2019-03-31T04:04:00.888Z,112.72
2019-03-31T04:06:30.488Z,107.43
2019-03-31T04:09:00.035Z,107.45
2019-03-31T04:11:29.820Z,113.57
2019-03-31T04:13:59.691Z,103.95
2019-03-31T04:16:29.157Z,113.45
2019-03-31T04:18:59.086Z,111.12
2019-03-31T04:21:28.796Z,109.87
2019-03-31T04:23:58.417Z,113.80
2019-03-31T04:26:28.255Z,106.87
2019-03-31T04:28:57.893Z,105.05
2019-03-31T04:31:27.430Z,110.70
2019-03-31T04:33:57.083Z,104.85
2019-03-31T04:36:26.600Z,117.62
2019-03-31T04:39:00.108Z,115.52
2019-03-31T04:41:27.895Z,117.90
2019-03-31T04:43:57.593Z,124.25
2019-03-31T04:46:27.089Z,128.57
2019-03-31T04:48:56.806Z,132.07
2019-03-31T04:51:26.502Z,131.00
2019-03-31T04:53:56.656Z,132.27
2019-03-31T04:56:26.055Z,129.68
2019-03-31T04:58:55.865Z,131.15
2019-03-31T05:01:25.702Z,126.60
2019-03-31T05:04:04.735Z,137.68
2019-03-31T05:06:27.656Z,136.12
2019-03-31T05:08:57.569Z,140.40
2019-03-31T05:11:27.047Z,141.85
2019-03-31T05:13:56.955Z,150.40
2019-03-31T05:16:26.855Z,139.00
2019-03-31T05:18:56.811Z,146.15
2019-03-31T05:21:26.481Z,152.35
2019-03-31T05:23:55.943Z,152.07
2019-03-31T05:26:25.504Z,143.72
2019-03-31T05:28:55.161Z,148.75
2019-03-31T05:31:24.715Z,145.90
2019-03-31T05:33:54.219Z,151.70
2019-03-31T05:36:23.915Z,147.80
2019-03-31T05:38:53.666Z,145.10
2019-03-31T05:41:23.327Z,147.28
2019-03-31T05:44:05.091Z,135.43
2019-03-31T05:46:24.356Z,143.17
2019-03-31T05:48:53.868Z,135.70
2019-03-31T05:51:23.955Z,138.52
2019-03-31T05:53:53.429Z,143.52
2019-03-31T05:56:22.977Z,146.37
2019-03-31T05:58:52.731Z,141.80
2019-03-31T06:01:22.438Z,144.60
2019-03-31T06:03:52.179Z,137.45
2019-03-31T06:06:21.640Z,129.87
2019-03-31T06:08:51.377Z,126.12
2019-03-31T06:11:21.256Z,114.77
2019-03-31T06:13:51.578Z,109.07
2019-03-31T06:16:21.397Z,98.20
2019-03-31T06:18:50.884Z,90.70
2019-03-31T06:21:20.525Z,102.80
2019-03-31T06:23:49.935Z,89.60
2019-03-31T06:26:19.486Z,89.55
2019-03-31T06:28:48.862Z,88.60
2019-03-31T06:31:18.238Z,93.12
2019-03-31T06:33:47.996Z,88.25
2019-03-31T06:36:17.428Z,89.77
2019-03-31T06:38:47.006Z,86.28
2019-03-31T06:41:16.741Z,89.67
2019-03-31T07:48:26.346Z,49.03
2019-03-31T07:50:55.921Z,50.05
2019-03-31T07:53:25.561Z,49.77
2019-03-31T07:55:55.320Z,51.85
2019-03-31T07:58:25.202Z,54.98
2019-03-31T08:00:55.083Z,53.17
2019-03-31T08:03:26.660Z,54.38
2019-03-31T08:05:56.109Z,49.42
2019-03-31T08:08:25.856Z,49.27
2019-03-31T08:10:55.886Z,48.70
2019-03-31T08:13:25.499Z,46.60
2019-03-31T08:15:54.972Z,45.58
2019-03-31T08:18:24.582Z,45.35
2019-03-31T08:20:54.163Z,42.30
2019-03-31T08:23:25.088Z,44.67
2019-03-31T08:25:54.634Z,43.28
2019-03-31T08:28:25.058Z,43.35
2019-03-31T08:30:54.760Z,42.20
2019-03-31T08:33:24.619Z,41.98
2019-03-31T08:35:54.278Z,49.50
2019-03-31T08:38:24.548Z,46.77
2019-03-31T08:40:55.101Z,36.68
2019-03-31T08:43:24.471Z,41.08
2019-03-31T08:45:55.324Z,44.60
2019-03-31T08:48:24.889Z,38.48
2019-03-31T08:50:54.817Z,44.27
2019-03-31T08:53:24.463Z,37.05
2019-03-31T08:55:54.026Z,36.65
2019-03-31T08:58:23.835Z,40.10
2019-03-31T09:00:54.990Z,37.38
2019-03-31T09:03:24.546Z,42.95
2019-03-31T09:06:01.572Z,33.30
2019-03-31T09:08:25.462Z,36.70
2019-03-31T09:10:55.114Z,34.60
2019-03-31T09:13:24.697Z,33.02
2019-03-31T09:15:54.172Z,37.50
2019-03-31T09:18:23.627Z,36.17
2019-03-31T09:20:53.186Z,30.57
2019-03-31T09:23:22.853Z,33.83
2019-03-31T09:25:52.936Z,40.10
2019-03-31T09:28:22.686Z,37.28
2019-03-31T09:30:52.649Z,35.00
2019-03-31T09:33:22.284Z,36.40
2019-03-31T09:35:52.412Z,35.25
2019-03-31T09:38:22.311Z,48.02
2019-03-31T09:40:52.047Z,38.73
2019-03-31T09:43:21.502Z,38.75
2019-03-31T09:45:50.913Z,37.30
2019-03-31T09:48:20.556Z,35.08
2019-03-31T09:50:50.272Z,36.15
2019-03-31T09:53:20.021Z,34.50
2019-03-31T09:55:49.782Z,39.88
2019-03-31T09:58:19.852Z,38.75
2019-03-31T10:00:53.174Z,36.63
2019-03-31T10:03:23.635Z,33.08
2019-03-31T10:05:53.106Z,38.63
2019-03-31T10:08:22.772Z,39.23
2019-03-31T10:10:52.425Z,37.00
2019-03-31T10:13:22.562Z,35.50
2019-03-31T10:15:52.481Z,37.35
2019-03-31T10:18:22.060Z,31.93
2019-03-31T10:20:51.712Z,33.08
2019-03-31T10:23:21.150Z,33.42
2019-03-31T10:25:50.596Z,34.05
2019-03-31T10:28:20.151Z,33.02
2019-03-31T10:30:50.094Z,37.98
2019-03-31T10:33:19.714Z,36.45
2019-03-31T10:35:49.267Z,39.67
2019-03-31T10:38:19.011Z,32.90
2019-03-31T10:40:48.910Z,31.42
2019-03-31T10:43:18.525Z,31.30
2019-03-31T10:45:48.189Z,31.60
2019-03-31T10:48:21.235Z,31.17
2019-03-31T10:50:50.623Z,27.17
2019-03-31T10:53:20.081Z,32.93
2019-03-31T10:55:49.875Z,31.40
2019-03-31T10:58:19.550Z,28.85
2019-03-31T11:00:49.294Z,32.45
2019-03-31T11:03:18.764Z,29.32
2019-03-31T11:05:48.900Z,26.73
2019-03-31T11:08:18.387Z,28.30
2019-03-31T11:10:48.563Z,27.35
2019-03-31T11:13:18.108Z,29.80
2019-03-31T11:15:47.979Z,27.15
2019-03-31T11:18:17.414Z,27.73
2019-03-31T11:20:47.153Z,29.75
2019-03-31T11:23:18.556Z,28.73
2019-03-31T11:25:48.033Z,24.40
2019-03-31T11:28:17.680Z,32.23
2019-03-31T11:30:47.909Z,27.98
2019-03-31T11:33:17.760Z,29.15
2019-03-31T11:35:47.593Z,28.30
2019-03-31T11:38:17.354Z,32.85
2019-03-31T11:40:47.138Z,24.87
2019-03-31T11:43:16.510Z,27.85
2019-03-31T11:45:46.279Z,24.92
2019-03-31T11:48:15.743Z,24.77
2019-03-31T11:50:45.477Z,24.55
2019-03-31T11:53:15.394Z,24.67
2019-03-31T11:55:45.107Z,24.30
2019-03-31T11:58:14.614Z,27.02
2019-03-31T12:00:48.696Z,23.22
2019-03-31T12:03:21.404Z,23.45
2019-03-31T12:05:51.066Z,22.73
2019-03-31T12:08:20.614Z,23.45
2019-03-31T12:10:50.341Z,28.57
2019-03-31T12:13:20.033Z,23.92
2019-03-31T12:15:49.720Z,21.40
2019-03-31T12:18:19.355Z,23.07
2019-03-31T12:20:48.742Z,23.10
2019-03-31T12:23:18.244Z,24.43
2019-03-31T12:25:48.575Z,20.52
2019-03-31T12:28:18.226Z,21.85
2019-03-31T12:30:47.786Z,19.73
2019-03-31T12:33:17.543Z,19.32
2019-03-31T12:35:47.202Z,20.82
2019-03-31T12:38:16.601Z,18.40
2019-03-31T12:40:46.063Z,19.07
2019-03-31T12:43:15.796Z,19.62
2019-03-31T12:45:45.309Z,20.20
2019-03-31T12:48:14.792Z,19.12
2019-03-31T12:50:44.486Z,18.73
2019-03-31T12:53:14.206Z,18.73
2019-03-31T12:55:44.114Z,21.00
2019-03-31T12:58:13.703Z,20.30
2019-03-31T13:00:43.191Z,21.42
2019-03-31T13:03:16.001Z,15.00
2019-03-31T13:05:43.764Z,19.23
2019-03-31T13:08:13.233Z,18.05
2019-03-31T13:10:42.753Z,17.82
2019-03-31T13:13:12.413Z,21.37
2019-03-31T13:15:42.048Z,15.38
2019-03-31T13:18:11.617Z,17.73
2019-03-31T13:20:41.823Z,20.10
2019-03-31T13:23:11.346Z,17.35
2019-03-31T13:25:40.987Z,17.48
2019-03-31T13:28:10.619Z,21.27
2019-03-31T13:30:40.417Z,19.62
2019-03-31T13:33:09.883Z,20.10
2019-03-31T13:35:39.575Z,16.57
2019-03-31T13:38:11.249Z,17.45
2019-03-31T13:40:40.458Z,17.30
2019-03-31T13:43:09.846Z,19.25
2019-03-31T13:45:39.349Z,21.68
2019-03-31T13:48:09.103Z,20.95
2019-03-31T13:50:38.642Z,19.48
2019-03-31T13:53:08.372Z,17.95
2019-03-31T13:55:38.027Z,20.88
2019-03-31T13:58:08.558Z,18.27
2019-03-31T14:00:40.229Z,19.20
2019-03-31T14:03:10.314Z,18.77
2019-03-31T14:05:40.117Z,19.02
2019-03-31T14:08:24.728Z,15.75
2019-03-31T14:10:41.576Z,18.52
2019-03-31T14:13:11.412Z,14.98
2019-03-31T14:15:41.255Z,12.43
2019-03-31T14:18:10.910Z,14.80
2019-03-31T14:20:40.461Z,17.37
2019-03-31T14:23:10.381Z,19.10
2019-03-31T14:25:39.867Z,13.53
2019-03-31T14:28:09.526Z,12.25
2019-03-31T14:30:39.073Z,12.07
2019-03-31T14:33:08.598Z,14.87
2019-03-31T14:35:39.313Z,12.90
2019-03-31T14:38:09.232Z,12.98
2019-03-31T14:40:38.935Z,13.83
2019-03-31T14:43:08.707Z,14.83
2019-03-31T14:45:38.303Z,13.15
2019-03-31T14:48:07.852Z,13.55
2019-03-31T14:50:38.194Z,13.40
2019-03-31T14:53:07.900Z,10.98
2019-03-31T14:55:37.695Z,12.82
2019-03-31T14:58:08.135Z,14.80
2019-03-31T15:00:38.089Z,11.38
2019-03-31T15:03:07.750Z,10.65
2019-03-31T15:05:37.256Z,10.25
2019-03-31T15:08:06.999Z,12.15
2019-03-31T15:10:36.873Z,12.98
2019-03-31T15:13:06.383Z,10.90
2019-03-31T15:15:35.899Z,10.48
2019-03-31T15:18:05.656Z,8.70
2019-03-31T15:20:35.466Z,9.18
2019-03-31T15:23:05.219Z,9.75
2019-03-31T15:25:34.764Z,7.67
2019-03-31T15:28:04.592Z,9.00
2019-03-31T15:30:34.195Z,7.78
2019-03-31T15:33:04.384Z,12.18
2019-03-31T15:35:37.481Z,9.53
2019-03-31T15:38:05.463Z,10.08
2019-03-31T15:40:35.011Z,8.08
2019-03-31T15:43:04.580Z,8.85
2019-03-31T15:45:34.409Z,8.18
2019-03-31T15:48:05.024Z,10.18
2019-03-31T15:50:34.691Z,8.18
2019-03-31T15:53:04.562Z,10.78
2019-03-31T15:55:34.350Z,10.58
2019-03-31T15:58:05.393Z,9.90
2019-03-31T16:00:35.359Z,8.10
2019-03-31T16:03:05.057Z,7.55
2019-03-31T16:05:34.730Z,8.83
2019-03-31T16:08:04.289Z,6.83
2019-03-31T16:10:33.655Z,9.08
2019-03-31T16:13:03.552Z,7.33
2019-03-31T16:15:34.176Z,10.13
2019-03-31T16:18:04.488Z,8.05
2019-03-31T16:20:34.302Z,11.63
2019-03-31T16:23:04.147Z,6.33
2019-03-31T16:25:35.620Z,7.20
2019-03-31T16:28:05.104Z,7.12
2019-03-31T16:30:36.740Z,9.40
2019-03-31T16:33:07.279Z,8.58
2019-03-31T16:35:37.095Z,7.42
2019-03-31T16:38:06.651Z,6.15
2019-03-31T16:40:36.266Z,9.40
2019-03-31T16:43:05.723Z,7.67
2019-03-31T16:45:35.361Z,9.98
2019-03-31T16:48:04.935Z,9.70
2019-03-31T16:50:34.624Z,8.28
2019-03-31T16:53:04.322Z,6.92
2019-03-31T16:55:34.015Z,6.42
2019-03-31T16:58:03.799Z,7.25
2019-03-31T17:00:33.229Z,8.25
2019-03-31T17:03:02.690Z,11.75
2019-03-31T17:05:32.127Z,7.78
2019-03-31T17:08:01.790Z,11.30
2019-03-31T17:10:31.256Z,10.80
2019-03-31T17:13:00.916Z,11.95
2019-03-31T17:15:30.655Z,7.25
2019-03-31T17:18:00.113Z,9.00
2019-03-31T17:20:29.651Z,11.73
2019-03-31T17:22:59.402Z,11.50
2019-03-31T17:25:28.799Z,12.35
2019-03-31T17:27:58.362Z,9.20
2019-03-31T17:30:27.908Z,11.43
2019-03-31T17:32:57.575Z,11.63
2019-03-31T17:35:27.313Z,8.85
2019-03-31T17:37:56.765Z,8.53
2019-03-31T17:40:27.157Z,7.25
2019-03-31T17:42:56.846Z,8.43
2019-03-31T17:45:26.487Z,11.48
2019-03-31T17:47:56.217Z,11.10
2019-03-31T17:50:25.865Z,12.37
2019-03-31T17:52:55.673Z,10.93
2019-03-31T17:55:26.495Z,11.75
2019-03-31T17:57:57.342Z,9.08
2019-03-31T18:00:26.812Z,12.53
2019-03-31T18:02:56.513Z,11.00
2019-03-31T18:05:26.227Z,13.03
2019-03-31T18:07:56.188Z,11.53
2019-03-31T18:10:25.844Z,15.93
2019-03-31T18:12:56.071Z,16.27
2019-03-31T18:15:25.719Z,10.72
2019-03-31T18:17:55.426Z,11.78
2019-03-31T18:20:24.868Z,11.85
2019-03-31T18:22:54.407Z,9.88
2019-03-31T18:25:23.878Z,9.13
2019-03-31T18:27:53.632Z,12.23
2019-03-31T18:30:23.471Z,11.20
2019-03-31T18:32:53.189Z,9.70
2019-03-31T18:35:22.726Z,15.23
2019-03-31T18:37:52.462Z,10.75
2019-03-31T18:40:34.283Z,11.60
2019-03-31T18:42:54.739Z,10.82
2019-03-31T18:45:24.860Z,12.23
2019-03-31T18:47:54.300Z,13.18
2019-03-31T18:50:24.234Z,17.70
2019-03-31T18:52:55.117Z,10.63
2019-03-31T18:55:33.463Z,8.05
2019-03-31T18:58:04.868Z,11.35
2019-03-31T19:00:53.186Z,5.97
2019-03-31T19:03:30.589Z,10.95
2019-03-31T19:06:07.598Z,9.15
2019-03-31T19:08:38.899Z,11.45
2019-03-31T19:11:09.971Z,12.07
2019-03-31T19:13:56.331Z,9.48
2019-03-31T19:16:45.447Z,12.43
2019-03-31T19:19:33.326Z,12.03
2019-03-31T19:22:13.797Z,13.75
2019-03-31T19:25:01.180Z,13.48
2019-03-31T19:27:41.752Z,14.07
2019-03-31T19:30:25.094Z,11.75
2019-03-31T19:32:56.250Z,7.17
2019-03-31T19:35:33.220Z,11.63
2019-03-31T19:38:03.493Z,7.80
2019-03-31T19:41:03.825Z,10.98
2019-03-31T19:43:29.377Z,11.73
2019-03-31T19:46:17.116Z,9.80
2019-03-31T19:48:51.402Z,11.28
2019-03-31T19:51:25.034Z,15.32
2019-03-31T19:54:12.851Z,8.03
2019-03-31T19:57:00.549Z,9.10
2019-03-31T19:59:40.811Z,9.23
2019-03-31T20:02:18.573Z,16.82
2019-03-31T20:04:56.037Z,9.70
2019-03-31T20:07:27.119Z,16.85
2019-03-31T20:10:16.378Z,16.07
2019-03-31T20:13:04.119Z,7.10
2019-03-31T20:15:38.381Z,9.40
2019-03-31T20:18:21.587Z,13.00
2019-03-31T20:20:52.888Z,13.68
2019-03-31T20:23:32.816Z,14.40
2019-03-31T20:26:03.993Z,13.30
2019-03-31T20:28:38.100Z,8.05
2019-03-31T20:31:18.391Z,12.82
2019-03-31T20:34:08.121Z,10.25
2019-03-31T20:36:41.881Z,10.38
2019-03-31T20:39:16.358Z,19.57
2019-03-31T20:41:59.467Z,10.45
2019-03-31T20:44:28.846Z,17.60
2019-03-31T20:46:58.282Z,12.05
2019-03-31T20:49:28.033Z,17.42
2019-03-31T20:51:57.463Z,10.45
2019-03-31T20:54:27.298Z,16.60
2019-03-31T20:56:56.946Z,10.70
2019-03-31T20:59:26.728Z,10.72
2019-03-31T21:01:56.424Z,11.57
2019-03-31T21:04:25.850Z,12.43
2019-03-31T21:06:55.655Z,12.95
2019-03-31T21:09:25.328Z,15.78
2019-03-31T21:11:54.836Z,15.80
2019-03-31T21:14:24.944Z,11.53
2019-03-31T21:16:54.872Z,13.10
2019-03-31T21:19:24.513Z,15.28
2019-03-31T21:21:54.055Z,13.05
2019-03-31T21:24:23.595Z,10.13
2019-03-31T21:26:53.283Z,9.48
2019-03-31T21:29:23.027Z,10.03
2019-03-31T21:31:52.459Z,11.60
2019-03-31T21:34:22.413Z,13.00
2019-03-31T21:36:52.161Z,12.68
2019-03-31T21:39:22.206Z,7.65
2019-03-31T21:41:51.954Z,11.90
2019-03-31T21:44:21.402Z,13.43
2019-03-31T21:46:51.135Z,15.58
2019-03-31T21:49:20.868Z,11.78
2019-03-31T21:51:50.763Z,15.60
2019-03-31T21:54:20.503Z,12.28
2019-03-31T21:56:49.949Z,11.45
2019-03-31T21:59:19.692Z,14.70
2019-03-31T22:01:49.851Z,12.25
2019-03-31T22:04:19.506Z,10.48
2019-03-31T22:06:48.959Z,12.58
2019-03-31T22:09:19.936Z,13.40
2019-03-31T22:11:49.852Z,12.40
2019-03-31T22:14:19.574Z,13.08
2019-03-31T22:16:49.078Z,19.25
2019-03-31T22:19:18.832Z,12.75
2019-03-31T22:21:49.452Z,13.80
2019-03-31T22:24:18.911Z,12.70
2019-03-31T22:26:48.732Z,11.88
2019-03-31T22:29:18.244Z,11.28
2019-03-31T22:31:47.884Z,10.88
2019-03-31T22:34:17.318Z,11.68
2019-03-31T22:36:46.971Z,11.95
2019-03-31T22:39:16.795Z,11.28
2019-03-31T22:41:46.230Z,17.30
2019-03-31T22:44:15.871Z,15.05
2019-03-31T22:46:54.039Z,12.90
2019-03-31T22:49:16.598Z,12.68
2019-03-31T22:51:46.322Z,9.50
2019-03-31T22:54:16.165Z,8.23
2019-03-31T22:56:45.986Z,10.72
2019-03-31T22:59:15.543Z,11.10
2019-03-31T23:01:45.337Z,9.00
2019-03-31T23:04:14.760Z,14.28
2019-03-31T23:06:44.275Z,9.63
2019-03-31T23:09:14.511Z,8.55
2019-03-31T23:11:43.938Z,9.98
2019-03-31T23:14:14.817Z,13.68
2019-03-31T23:16:44.507Z,11.50
2019-03-31T23:19:13.879Z,10.72
2019-03-31T23:21:43.576Z,7.60
2019-03-31T23:24:13.223Z,10.70
2019-03-31T23:26:43.167Z,10.25
2019-03-31T23:29:12.806Z,11.70
2019-03-31T23:31:42.233Z,10.72
2019-03-31T23:34:11.873Z,12.20
2019-03-31T23:36:41.501Z,9.43
2019-03-31T23:39:10.875Z,12.25
2019-03-31T23:41:40.593Z,13.43
2019-03-31T23:44:10.036Z,13.18
2019-03-31T23:46:39.969Z,13.68
2019-03-31T23:49:09.394Z,13.95
2019-03-31T23:51:39.040Z,10.93
2019-03-31T23:54:08.723Z,12.28
2019-03-31T23:56:38.420Z,11.20
2019-03-31T23:59:07.961Z,14.03
